Palic, Serbia
Current Conditions -  °F | °C
As of 10:45 PM on Friday 24 Oct 2014 (Local Time) from LHUD Reporting Station
Moderate Fog Moderate Fog  
Wind Chill: 40°   Ceiling: 300
Heat Index: 45°   Visibility: 0.56mi
Dew Point: 45°   Wind: 9mph
Humidity: 100%   Direction: 10°N
Pressure: 30.15"   Gusts: NA
Location:  46.11°N, 19.77°E
Report Text: LHUD 242045Z 01008KT 0900 FG OVC003 07/07 Q1021
Loading
Personal Weather Stations






























Interactive Weather Map
Tropical Storm Tracking
New forecast layout! Learn more

10-Day Weather Forecast

Advertisements
Track Severe Weather on mobile